createdAt,value
2023-05-13T00:00:45.126Z,100.00
2023-05-13T00:03:12.786Z,100.00
2023-05-13T00:05:41.383Z,100.00
2023-05-13T00:08:08.411Z,100.00
2023-05-13T00:10:35.767Z,100.00
2023-05-13T00:13:03.017Z,100.00
2023-05-13T00:15:30.211Z,100.00
2023-05-13T00:17:57.862Z,100.00
2023-05-13T00:20:25.391Z,100.00
2023-05-13T00:22:52.671Z,100.00
2023-05-13T00:25:20.112Z,100.00
2023-05-13T00:27:47.244Z,100.00
2023-05-13T00:30:14.688Z,100.00
2023-05-13T00:32:42.030Z,100.00
2023-05-13T00:35:10.330Z,100.00
2023-05-13T00:37:37.582Z,100.00
2023-05-13T00:40:05.559Z,100.00
2023-05-13T00:42:32.777Z,100.00
2023-05-13T00:45:00.161Z,100.00
2023-05-13T00:47:27.684Z,100.00
2023-05-13T00:49:55.174Z,100.00
2023-05-13T00:52:22.415Z,100.00
2023-05-13T00:54:49.679Z,100.00
2023-05-13T00:57:17.287Z,100.00
2023-05-13T00:59:44.597Z,100.00
2023-05-13T01:02:21.360Z,100.00
2023-05-13T01:05:05.313Z,100.00
2023-05-13T01:07:32.783Z,100.00
2023-05-13T01:10:08.928Z,100.00
2023-05-13T01:12:44.774Z,100.00
2023-05-13T01:15:19.557Z,100.00
2023-05-13T01:18:11.869Z,100.00
2023-05-13T01:20:41.513Z,100.00
2023-05-13T01:23:12.317Z,100.00
2023-05-13T01:25:40.559Z,100.00
2023-05-13T01:28:08.429Z,100.00
2023-05-13T01:30:36.398Z,100.00
2023-05-13T01:33:05.298Z,100.00
2023-05-13T01:35:32.550Z,100.00
2023-05-13T01:38:00.202Z,100.00
2023-05-13T01:40:32.650Z,100.00
2023-05-13T01:43:05.510Z,100.00
2023-05-13T01:45:33.587Z,100.00
2023-05-13T01:48:01.314Z,100.00
2023-05-13T01:50:37.144Z,100.00
2023-05-13T01:53:05.520Z,100.00
2023-05-13T01:55:32.579Z,100.00
2023-05-13T01:57:59.922Z,100.00
2023-05-13T02:00:26.966Z,100.00
2023-05-13T02:02:54.276Z,100.00
2023-05-13T02:05:21.674Z,100.00
2023-05-13T02:07:48.784Z,100.00
2023-05-13T02:10:15.974Z,100.00
2023-05-13T02:12:42.904Z,100.00
2023-05-13T02:15:11.020Z,100.00
2023-05-13T02:17:37.931Z,100.00
2023-05-13T02:20:05.904Z,100.00
2023-05-13T02:22:32.831Z,100.00
2023-05-13T02:24:59.695Z,100.00
2023-05-13T02:27:27.255Z,100.00
2023-05-13T02:29:54.815Z,100.00
2023-05-13T02:32:22.594Z,100.00
2023-05-13T02:34:50.271Z,100.00
2023-05-13T02:37:17.550Z,100.00
2023-05-13T02:39:49.636Z,100.00
2023-05-13T02:42:18.245Z,100.00
2023-05-13T02:44:46.206Z,100.00
2023-05-13T02:47:13.978Z,100.00
2023-05-13T02:49:41.136Z,100.00
2023-05-13T02:52:08.781Z,100.00
2023-05-13T02:54:36.753Z,100.00
2023-05-13T02:57:04.769Z,100.00
2023-05-13T02:59:32.071Z,100.00
2023-05-13T03:01:59.644Z,100.00
2023-05-13T03:04:27.305Z,100.00
2023-05-13T03:06:54.740Z,100.00
2023-05-13T03:09:22.313Z,100.00
2023-05-13T03:11:49.461Z,100.00
2023-05-13T03:14:17.022Z,100.00
2023-05-13T03:16:45.292Z,100.00
2023-05-13T03:19:14.461Z,100.00
2023-05-13T03:21:42.047Z,100.00
2023-05-13T03:24:11.456Z,100.00
2023-05-13T03:26:38.820Z,100.00
2023-05-13T03:29:06.466Z,100.00
2023-05-13T03:31:35.105Z,100.00
2023-05-13T03:34:03.731Z,100.00
2023-05-13T03:36:32.736Z,100.00
2023-05-13T03:39:00.592Z,100.00
2023-05-13T03:41:28.663Z,100.00
2023-05-13T03:43:57.764Z,100.00
2023-05-13T03:46:27.615Z,100.00
2023-05-13T03:48:56.162Z,100.00
2023-05-13T03:51:23.710Z,100.00
2023-05-13T03:53:51.372Z,100.00
2023-05-13T03:56:18.934Z,100.00
2023-05-13T03:58:46.104Z,100.00
2023-05-13T04:01:13.438Z,100.00
2023-05-13T04:03:43.149Z,100.00
2023-05-13T04:06:10.534Z,100.00
2023-05-13T04:08:37.761Z,100.00
2023-05-13T04:11:05.354Z,100.00
2023-05-13T04:13:36.270Z,100.00
2023-05-13T04:16:04.129Z,100.00
2023-05-13T04:18:31.722Z,99.97
2023-05-13T04:20:59.345Z,99.86
2023-05-13T04:23:26.692Z,99.99
2023-05-13T04:25:54.253Z,99.99
2023-05-13T04:28:21.824Z,99.75
2023-05-13T04:30:50.615Z,99.27
2023-05-13T04:33:18.474Z,97.67
2023-05-13T04:35:48.388Z,97.90
2023-05-13T04:38:15.940Z,97.18
2023-05-13T04:40:45.338Z,97.27
2023-05-13T04:43:14.742Z,97.48
2023-05-13T04:45:57.491Z,96.78
2023-05-13T04:48:28.760Z,95.99
2023-05-13T04:50:58.821Z,95.35
2023-05-13T04:53:27.272Z,93.79
2023-05-13T04:56:01.262Z,91.52
2023-05-13T04:58:30.714Z,90.69
2023-05-13T05:00:58.479Z,90.09
2023-05-13T05:03:26.389Z,89.70
2023-05-13T05:05:55.082Z,89.73
2023-05-13T05:08:24.432Z,89.51
2023-05-13T05:10:52.295Z,89.54
2023-05-13T05:13:20.063Z,89.36
2023-05-13T05:15:47.315Z,89.25
2023-05-13T05:18:15.279Z,89.23
2023-05-13T05:20:45.299Z,88.57
2023-05-13T05:23:43.584Z,86.26
2023-05-13T05:26:12.561Z,84.06
2023-05-13T05:28:47.123Z,83.30
2023-05-13T05:31:17.647Z,83.13
2023-05-13T05:33:45.025Z,83.26
2023-05-13T05:36:12.665Z,83.51
2023-05-13T05:38:40.301Z,83.35
2023-05-13T05:41:08.607Z,84.27
2023-05-13T05:43:36.135Z,84.17
2023-05-13T05:46:03.614Z,84.21
2023-05-13T05:48:33.154Z,84.77
2023-05-13T05:51:02.434Z,85.40
2023-05-13T05:53:32.616Z,85.91
2023-05-13T05:56:01.002Z,86.28
2023-05-13T05:58:29.083Z,86.19
2023-05-13T06:00:58.571Z,85.72
2023-05-13T06:03:26.518Z,84.84
2023-05-13T06:05:54.508Z,83.12
2023-05-13T06:08:22.900Z,82.43
2023-05-13T06:10:51.988Z,82.69
2023-05-13T06:13:19.541Z,83.25
2023-05-13T06:15:47.090Z,82.65
2023-05-13T06:18:15.272Z,81.39
2023-05-13T06:20:42.850Z,80.47
2023-05-13T06:23:10.698Z,78.96
2023-05-13T06:25:38.164Z,77.43
2023-05-13T06:28:08.999Z,76.38
2023-05-13T06:30:37.371Z,75.91
2023-05-13T06:33:05.614Z,75.66
2023-05-13T06:35:33.010Z,76.05
2023-05-13T06:38:03.589Z,76.13
2023-05-13T06:40:31.586Z,75.14
2023-05-13T06:42:58.998Z,74.72
2023-05-13T06:45:31.228Z,74.46
2023-05-13T06:47:59.205Z,74.83
2023-05-13T06:50:27.776Z,75.63
2023-05-13T06:52:55.441Z,76.51
2023-05-13T06:55:24.030Z,77.02
2023-05-13T06:57:51.992Z,76.33
2023-05-13T07:00:20.884Z,76.27
2023-05-13T07:02:48.855Z,75.41
2023-05-13T07:05:16.323Z,73.80
2023-05-13T07:07:43.962Z,73.24
2023-05-13T07:10:11.638Z,74.34
2023-05-13T07:12:39.289Z,74.31
2023-05-13T07:15:07.672Z,74.57
2023-05-13T07:17:35.221Z,73.16
2023-05-13T07:20:02.827Z,72.56
2023-05-13T07:22:30.335Z,72.66
2023-05-13T07:24:58.417Z,72.37
2023-05-13T07:27:25.976Z,71.46
2023-05-13T07:29:53.731Z,69.43
2023-05-13T07:32:21.431Z,66.96
2023-05-13T07:34:49.156Z,66.95
2023-05-13T07:37:17.590Z,68.74
2023-05-13T07:39:44.980Z,68.65
2023-05-13T07:42:13.155Z,69.06
2023-05-13T07:44:41.214Z,68.88
2023-05-13T07:47:08.568Z,68.46
2023-05-13T07:49:37.809Z,68.93
2023-05-13T07:52:06.339Z,68.07
2023-05-13T07:54:33.842Z,66.78
2023-05-13T07:57:01.692Z,65.49
2023-05-13T07:59:29.592Z,65.00
2023-05-13T08:01:57.127Z,62.94
2023-05-13T08:04:25.104Z,62.71
2023-05-13T08:06:53.263Z,62.26
2023-05-13T08:09:20.963Z,61.63
2023-05-13T08:11:48.585Z,61.10
2023-05-13T08:14:15.951Z,60.16
2023-05-13T08:16:43.313Z,58.93
2023-05-13T08:19:11.128Z,59.11
2023-05-13T08:21:39.273Z,59.03
2023-05-13T08:24:07.208Z,58.31
2023-05-13T08:26:34.808Z,58.07
2023-05-13T08:29:02.422Z,56.53
2023-05-13T08:31:32.327Z,55.58
2023-05-13T08:34:00.008Z,54.21
2023-05-13T08:36:27.573Z,53.90
2023-05-13T08:38:55.336Z,54.65
2023-05-13T08:41:23.288Z,54.69
2023-05-13T08:43:50.562Z,54.60
2023-05-13T08:46:18.216Z,54.31
2023-05-13T08:48:45.870Z,55.17
2023-05-13T08:51:13.421Z,54.43
2023-05-13T08:53:41.502Z,52.94
2023-05-13T08:56:10.195Z,52.92
2023-05-13T08:58:37.744Z,52.39
2023-05-13T09:01:06.043Z,51.66
2023-05-13T09:03:34.095Z,51.74
2023-05-13T09:06:02.273Z,51.78
2023-05-13T09:08:29.821Z,51.97
2023-05-13T09:10:57.306Z,51.51
2023-05-13T09:13:24.838Z,50.40
2023-05-13T09:15:52.444Z,49.70
2023-05-13T09:18:20.108Z,49.68
2023-05-13T09:20:48.455Z,50.80
2023-05-13T09:23:16.297Z,51.26
2023-05-13T09:25:43.749Z,49.64
2023-05-13T09:28:11.521Z,49.49
2023-05-13T09:30:46.466Z,49.82
2023-05-13T09:33:20.257Z,48.88
2023-05-13T09:35:54.472Z,48.87
2023-05-13T09:38:37.494Z,49.22
2023-05-13T09:41:06.752Z,48.88
2023-05-13T09:43:35.150Z,49.48
2023-05-13T09:46:03.619Z,48.01
2023-05-13T09:48:32.504Z,48.48
2023-05-13T09:51:00.401Z,48.42
2023-05-13T09:53:28.068Z,48.85
2023-05-13T09:55:56.683Z,49.42
2023-05-13T09:58:31.128Z,49.15
2023-05-13T10:00:58.793Z,48.88
2023-05-13T10:03:26.014Z,49.95
2023-05-13T10:05:53.936Z,50.06
2023-05-13T10:08:20.999Z,48.88
2023-05-13T10:10:47.877Z,48.53
2023-05-13T10:13:16.565Z,48.32
2023-05-13T10:15:51.514Z,48.53
2023-05-13T10:18:19.838Z,48.62
2023-05-13T10:20:47.507Z,47.66
2023-05-13T10:23:15.146Z,47.96
2023-05-13T10:25:43.033Z,47.16
2023-05-13T10:28:10.072Z,47.33
2023-05-13T10:30:38.246Z,47.61
2023-05-13T10:33:05.421Z,46.94
2023-05-13T10:35:37.130Z,47.64
2023-05-13T10:38:20.172Z,47.32
2023-05-13T10:41:30.736Z,46.80
2023-05-13T10:43:58.807Z,46.88
2023-05-13T10:46:26.435Z,46.17
2023-05-13T10:49:00.142Z,45.44
2023-05-13T10:51:27.850Z,45.23
2023-05-13T10:53:56.958Z,45.64
2023-05-13T10:56:28.038Z,45.15
2023-05-13T10:59:03.233Z,45.11
2023-05-13T11:01:47.579Z,43.68
2023-05-13T11:04:17.681Z,44.23
2023-05-13T11:06:50.937Z,44.27
2023-05-13T11:09:23.045Z,43.37
2023-05-13T11:11:55.664Z,42.62
2023-05-13T11:14:27.086Z,42.13
2023-05-13T11:17:02.104Z,41.95
2023-05-13T11:19:39.695Z,41.42
2023-05-13T11:22:11.356Z,41.34
2023-05-13T11:24:48.130Z,40.23
2023-05-13T11:27:21.456Z,39.69
2023-05-13T11:29:53.587Z,39.18
2023-05-13T11:33:03.108Z,38.78
2023-05-13T11:35:32.124Z,37.39
2023-05-13T11:38:01.433Z,36.42
2023-05-13T11:40:30.436Z,36.77
2023-05-13T11:42:58.407Z,37.22
2023-05-13T11:45:29.281Z,37.63
2023-05-13T11:47:57.989Z,37.66
2023-05-13T11:50:30.810Z,37.82
2023-05-13T11:52:59.684Z,37.94
2023-05-13T11:55:35.893Z,38.02
2023-05-13T11:58:03.611Z,38.22
2023-05-13T12:00:35.851Z,38.32
2023-05-13T12:03:09.612Z,38.20
2023-05-13T12:05:37.547Z,36.74
2023-05-13T12:08:07.709Z,35.72
2023-05-13T12:10:35.538Z,35.63
2023-05-13T12:13:03.198Z,36.96
2023-05-13T12:15:31.068Z,37.11
2023-05-13T12:17:58.637Z,36.42
2023-05-13T12:20:26.597Z,36.14
2023-05-13T12:22:57.081Z,35.32
2023-05-13T12:25:38.421Z,35.23
2023-05-13T12:28:22.760Z,34.47
2023-05-13T12:30:57.095Z,34.76
2023-05-13T12:33:28.622Z,35.68
2023-05-13T12:36:21.969Z,36.18
2023-05-13T12:39:11.564Z,36.31
2023-05-13T12:41:42.635Z,36.59
2023-05-13T12:44:16.819Z,37.07
2023-05-13T12:46:55.636Z,37.01
2023-05-13T12:49:24.119Z,37.04
2023-05-13T12:51:52.896Z,37.94
2023-05-13T12:54:20.705Z,37.37
2023-05-13T12:56:48.841Z,36.75
2023-05-13T12:59:17.019Z,35.51
2023-05-13T13:01:44.507Z,36.26
2023-05-13T13:04:13.415Z,36.68
2023-05-13T13:06:41.053Z,36.70
2023-05-13T13:09:09.304Z,36.26
2023-05-13T13:11:36.641Z,35.77
2023-05-13T13:14:04.316Z,35.07
2023-05-13T13:16:32.273Z,34.60
2023-05-13T13:19:02.268Z,34.41
2023-05-13T13:21:29.654Z,34.03
2023-05-13T13:23:57.418Z,33.50
2023-05-13T13:26:25.059Z,33.58
2023-05-13T13:28:52.661Z,33.90
2023-05-13T13:31:20.328Z,34.76
2023-05-13T13:33:48.063Z,34.68
2023-05-13T13:36:17.162Z,34.61
2023-05-13T13:38:46.397Z,33.87
2023-05-13T13:41:13.810Z,32.71
2023-05-13T13:43:41.381Z,32.83
2023-05-13T13:46:09.179Z,32.82
2023-05-13T13:48:36.914Z,33.01
2023-05-13T13:51:07.539Z,32.71
2023-05-13T13:53:35.318Z,32.23
2023-05-13T13:56:03.162Z,32.54
2023-05-13T13:58:30.622Z,33.30
2023-05-13T14:00:59.571Z,32.85
2023-05-13T14:03:28.719Z,32.70
2023-05-13T14:05:56.484Z,32.33
2023-05-13T14:08:24.186Z,32.15
2023-05-13T14:10:52.812Z,32.35
2023-05-13T14:13:21.299Z,32.18
2023-05-13T14:15:48.882Z,32.80
2023-05-13T14:18:17.233Z,33.85
2023-05-13T14:20:45.048Z,34.35
2023-05-13T14:23:12.556Z,33.75
2023-05-13T14:25:39.916Z,33.85
2023-05-13T14:28:08.857Z,34.03
2023-05-13T14:30:36.565Z,34.53
2023-05-13T14:33:07.197Z,34.95
2023-05-13T14:35:34.963Z,35.78
2023-05-13T14:38:02.727Z,35.77
2023-05-13T14:40:31.925Z,36.14
2023-05-13T14:42:59.613Z,36.11
2023-05-13T14:45:30.020Z,36.54
2023-05-13T14:47:57.827Z,36.93
2023-05-13T14:50:25.286Z,36.84
2023-05-13T14:52:52.990Z,36.39
2023-05-13T14:55:20.925Z,35.81
2023-05-13T14:57:48.661Z,35.65
2023-05-13T15:00:16.977Z,36.58
2023-05-13T15:02:44.576Z,37.18
2023-05-13T15:05:13.350Z,36.88
2023-05-13T15:07:42.037Z,37.70
2023-05-13T15:10:10.555Z,38.64
2023-05-13T15:12:39.434Z,39.00
2023-05-13T15:15:08.918Z,38.35
2023-05-13T15:17:36.500Z,37.97
2023-05-13T15:20:04.910Z,38.40
2023-05-13T15:22:34.003Z,38.80
2023-05-13T15:25:02.939Z,38.21
2023-05-13T15:27:30.645Z,38.23
2023-05-13T15:29:58.318Z,38.88
2023-05-13T15:32:26.052Z,38.98
2023-05-13T15:34:53.784Z,39.01
2023-05-13T15:37:21.980Z,38.95
2023-05-13T15:39:49.863Z,39.36
2023-05-13T15:42:19.029Z,39.77
2023-05-13T15:44:46.519Z,40.18
2023-05-13T15:47:14.461Z,40.85
2023-05-13T15:49:42.522Z,41.14
2023-05-13T15:52:09.899Z,41.26
2023-05-13T15:54:37.743Z,40.96
2023-05-13T15:57:05.417Z,41.53
2023-05-13T15:59:32.772Z,41.73
2023-05-13T16:02:00.266Z,41.13
2023-05-13T16:04:27.917Z,40.71
2023-05-13T16:06:55.534Z,40.78
2023-05-13T16:09:23.916Z,40.90
2023-05-13T16:11:54.464Z,41.06
2023-05-13T16:14:21.997Z,41.35
2023-05-13T16:16:49.424Z,41.57
2023-05-13T16:19:17.117Z,42.08
2023-05-13T16:21:44.878Z,42.48
2023-05-13T16:24:12.345Z,42.57
2023-05-13T16:26:39.616Z,42.86
2023-05-13T16:29:07.454Z,43.41
2023-05-13T16:31:35.243Z,43.66
2023-05-13T16:34:03.007Z,44.05
2023-05-13T16:36:32.103Z,44.27
2023-05-13T16:39:00.247Z,44.31
2023-05-13T16:41:27.915Z,44.43
2023-05-13T16:43:55.471Z,46.06
2023-05-13T16:46:23.048Z,47.40
2023-05-13T16:48:51.036Z,47.85
2023-05-13T16:51:18.532Z,48.68
2023-05-13T16:53:46.229Z,49.74
2023-05-13T16:56:13.604Z,50.31
2023-05-13T16:58:41.452Z,51.23
2023-05-13T17:01:09.324Z,51.75
2023-05-13T17:03:37.172Z,52.52
2023-05-13T17:06:07.838Z,53.09
2023-05-13T17:08:35.576Z,53.60
2023-05-13T17:11:03.208Z,53.79
2023-05-13T17:13:31.096Z,54.12
2023-05-13T17:15:58.553Z,54.69
2023-05-13T17:18:27.145Z,55.26
2023-05-13T17:20:55.174Z,56.81
2023-05-13T17:23:22.830Z,57.97
2023-05-13T17:25:51.243Z,59.89
2023-05-13T17:28:18.845Z,61.84
2023-05-13T17:30:47.620Z,62.82
2023-05-13T17:33:16.215Z,64.36
2023-05-13T17:35:43.936Z,65.79
2023-05-13T17:38:11.571Z,66.99
2023-05-13T17:40:38.957Z,67.55
2023-05-13T17:43:06.719Z,67.57
2023-05-13T17:45:35.877Z,68.11
2023-05-13T17:48:03.800Z,68.44
2023-05-13T17:50:32.298Z,67.32
2023-05-13T17:53:00.753Z,66.22
2023-05-13T17:55:28.204Z,65.25
2023-05-13T17:57:55.963Z,66.03
2023-05-13T18:00:24.167Z,67.30
2023-05-13T18:02:52.441Z,66.76
2023-05-13T18:05:21.845Z,66.04
2023-05-13T18:07:49.458Z,65.87
2023-05-13T18:10:17.034Z,66.00
2023-05-13T18:12:44.797Z,65.48
2023-05-13T18:15:12.359Z,64.54
2023-05-13T18:17:40.068Z,64.12
2023-05-13T18:20:08.813Z,65.62
2023-05-13T18:22:36.521Z,65.39
2023-05-13T18:25:07.414Z,64.53
2023-05-13T18:27:35.248Z,64.17
2023-05-13T18:30:23.268Z,63.45
2023-05-13T18:32:51.434Z,63.90
2023-05-13T18:35:21.711Z,63.86
2023-05-13T18:37:49.373Z,64.03
2023-05-13T18:40:17.233Z,64.19
2023-05-13T18:42:44.609Z,64.47
2023-05-13T18:45:12.358Z,64.05
2023-05-13T18:47:40.367Z,64.31
2023-05-13T18:50:08.710Z,64.33
2023-05-13T18:52:36.466Z,64.25
2023-05-13T18:55:05.378Z,63.74
2023-05-13T18:57:32.869Z,63.06
2023-05-13T19:00:00.593Z,63.35
2023-05-13T19:02:29.110Z,63.27
2023-05-13T19:04:56.671Z,63.52
2023-05-13T19:07:24.123Z,63.64
2023-05-13T19:09:51.527Z,63.79
2023-05-13T19:12:18.878Z,64.17
2023-05-13T19:14:46.853Z,64.55
2023-05-13T19:17:14.678Z,65.06
2023-05-13T19:19:43.505Z,65.40
2023-05-13T19:22:11.367Z,65.38
2023-05-13T19:24:38.666Z,65.40
2023-05-13T19:27:07.318Z,65.67
2023-05-13T19:29:35.834Z,65.86
2023-05-13T19:32:03.218Z,65.94
2023-05-13T19:34:30.612Z,66.08
2023-05-13T19:36:58.269Z,66.40
2023-05-13T19:39:26.022Z,66.40
2023-05-13T19:41:53.404Z,66.64
2023-05-13T19:44:21.168Z,66.74
2023-05-13T19:46:48.582Z,67.15
2023-05-13T19:49:16.058Z,67.18
2023-05-13T19:51:43.635Z,66.72
2023-05-13T19:54:12.125Z,67.21
2023-05-13T19:56:39.756Z,67.80
2023-05-13T19:59:08.034Z,67.98
2023-05-13T20:01:35.604Z,68.02
2023-05-13T20:04:04.215Z,68.30
2023-05-13T20:06:32.980Z,68.41
2023-05-13T20:09:02.369Z,68.30
2023-05-13T20:11:29.823Z,68.82
2023-05-13T20:13:59.435Z,68.89
2023-05-13T20:16:27.396Z,68.79
2023-05-13T20:18:54.927Z,68.82
2023-05-13T20:21:22.312Z,68.96
2023-05-13T20:23:50.097Z,69.09
2023-05-13T20:26:17.428Z,69.08
2023-05-13T20:28:46.009Z,69.37
2023-05-13T20:31:13.499Z,69.96
2023-05-13T20:33:41.167Z,70.51
2023-05-13T20:36:08.728Z,71.22
2023-05-13T20:38:36.662Z,72.02
2023-05-13T20:41:04.117Z,72.83
2023-05-13T20:43:34.335Z,73.71
2023-05-13T20:46:03.498Z,74.15
2023-05-13T20:48:35.401Z,74.72
2023-05-13T20:51:03.995Z,75.05
2023-05-13T20:53:37.925Z,75.59
2023-05-13T20:56:05.676Z,76.05
2023-05-13T20:58:33.106Z,76.51
2023-05-13T21:01:00.940Z,77.09
2023-05-13T21:03:28.496Z,77.53
2023-05-13T21:05:55.993Z,78.29
2023-05-13T21:08:24.052Z,79.08
2023-05-13T21:10:51.722Z,80.05
2023-05-13T21:13:19.337Z,80.92
2023-05-13T21:15:47.064Z,81.86
2023-05-13T21:18:14.503Z,82.66
2023-05-13T21:20:44.833Z,83.57
2023-05-13T21:23:12.282Z,84.17
2023-05-13T21:25:39.643Z,84.74
2023-05-13T21:28:07.501Z,85.55
2023-05-13T21:30:34.936Z,86.38
2023-05-13T21:33:02.572Z,87.07
2023-05-13T21:35:30.389Z,87.96
2023-05-13T21:38:11.000Z,88.77
2023-05-13T21:40:39.744Z,89.56
2023-05-13T21:43:07.003Z,90.31
2023-05-13T21:45:34.642Z,90.93
2023-05-13T21:48:02.295Z,91.49
2023-05-13T21:50:30.178Z,92.11
2023-05-13T21:52:58.035Z,92.23
2023-05-13T21:55:25.804Z,92.66
2023-05-13T21:57:53.566Z,93.55
2023-05-13T22:00:21.988Z,93.48
2023-05-13T22:02:50.914Z,93.75
2023-05-13T22:05:18.699Z,94.20
2023-05-13T22:07:46.567Z,94.21
2023-05-13T22:10:14.125Z,94.58
2023-05-13T22:12:41.681Z,95.05
2023-05-13T22:15:10.060Z,95.08
2023-05-13T22:17:37.587Z,94.99
2023-05-13T22:20:06.784Z,94.81
2023-05-13T22:22:34.287Z,94.46
2023-05-13T22:25:01.729Z,94.24
2023-05-13T22:27:29.195Z,94.40
2023-05-13T22:29:57.259Z,94.92
2023-05-13T22:32:25.320Z,95.01
2023-05-13T22:34:53.023Z,95.57
2023-05-13T22:37:20.995Z,95.79
2023-05-13T22:39:48.735Z,96.49
2023-05-13T22:42:16.193Z,96.86
2023-05-13T22:44:43.951Z,97.11
2023-05-13T22:47:11.175Z,97.66
2023-05-13T22:49:38.594Z,98.35
2023-05-13T22:52:06.526Z,98.43
2023-05-13T22:54:34.048Z,98.67
2023-05-13T22:57:01.659Z,98.95
2023-05-13T22:59:29.208Z,98.97
2023-05-13T23:01:56.923Z,99.08
2023-05-13T23:04:24.678Z,99.20
2023-05-13T23:06:52.699Z,99.15
2023-05-13T23:09:20.460Z,99.44
2023-05-13T23:11:47.913Z,99.84
2023-05-13T23:14:15.782Z,99.71
2023-05-13T23:16:43.370Z,99.67
2023-05-13T23:19:11.351Z,99.62
2023-05-13T23:21:39.076Z,99.69
2023-05-13T23:24:06.754Z,99.54
2023-05-13T23:26:34.395Z,99.78
2023-05-13T23:29:01.970Z,99.89
2023-05-13T23:31:29.693Z,99.91
2023-05-13T23:33:57.190Z,100.00
2023-05-13T23:36:24.728Z,100.00
2023-05-13T23:38:52.307Z,100.00
2023-05-13T23:41:19.746Z,100.00
2023-05-13T23:43:47.514Z,100.00
2023-05-13T23:46:15.026Z,100.00
2023-05-13T23:48:42.733Z,100.00
2023-05-13T23:51:10.030Z,100.00
2023-05-13T23:53:37.646Z,100.00
2023-05-13T23:56:05.820Z,100.00
2023-05-13T23:58:33.486Z,100.00
